This is the latest recevied weather packets stored in our database for station/object K7CTM. If no packets are shown the sender has not sent any weather packets the latest 10 day(s).
| Time | Temp. | Humidity | Pressure | Rain* | Wind** | Luminosity | Snow |
|---|---|---|---|---|---|---|---|
| 1788509778 | 17.22° C | 38% | 1019.9 hPa | 0 mm | - | 0 W/m² | - |
| 1788509474 | 17.22° C | 38% | 1019.9 hPa | 0 mm | - | 0 W/m² | - |
| 1788509170 | 17.22° C | 37% | 1020 hPa | 0 mm | - | 0 W/m² | - |
| 1788508866 | 18.89° C | 35% | 1020 hPa | 0 mm | - | 0 W/m² | - |
| 1788508562 | 18.89° C | 34% | 1019.9 hPa | 0 mm | - | 0 W/m² | - |
| 1788508261 | 19.44° C | 33% | 1019.9 hPa | 0 mm | - | 0 W/m² | - |
| 1788507960 | 19.44° C | 33% | 1019.8 hPa | 0 mm | - | 0 W/m² | - |
| 1788507655 | 19.44° C | 33% | 1020 hPa | 0 mm | - | 0 W/m² | - |
| 1788507350 | 19.44° C | 33% | 1020 hPa | 0 mm | - | 0 W/m² | - |
| 1788507047 | 18.89° C | 33% | 1020.3 hPa | 0 mm | - | 0 W/m² | - |
| 1788506742 | 18.33° C | 35% | 1020.3 hPa | 0 mm | - | 0 W/m² | - |
| 1788506437 | 18.89° C | 35% | 1020.4 hPa | 0 mm | - | 0 W/m² | - |
| 1788506133 | 19.44° C | 34% | 1020.4 hPa | 0 mm | - | 0 W/m² | - |
| 1788505828 | 19.44° C | 33% | 1020.3 hPa | 0 mm | - | 0 W/m² | - |
| 1788505526 | 19.44° C | 34% | 1020 hPa | 0 mm | - | 0 W/m² | - |
| 1788505221 | 19.44° C | 34% | 1020.2 hPa | 0 mm | - | 0 W/m² | - |
| 1788504916 | 19.44° C | 34% | 1020.3 hPa | 0 mm | - | 0 W/m² | - |
| 1788504613 | 19.44° C | 34% | 1020.5 hPa | 0 mm | - | 0 W/m² | - |
| 1788504309 | 18.89° C | 36% | 1020.7 hPa | 0 mm | - | 0 W/m² | - |
| 1788504003 | 19.44° C | 35% | 1020.5 hPa | 0 mm | - | 0 W/m² | - |
| 1788503700 | 20° C | 31% | 1020.7 hPa | 0 mm | - | 0 W/m² | - |
| 1788503394 | 20° C | 32% | 1020.6 hPa | 0 mm | - | 0 W/m² | - |
| 1788503090 | 19.44° C | 33% | 1020.7 hPa | 0 mm | - | 0 W/m² | - |
| 1788502786 | 20° C | 32% | 1020.7 hPa | 0 mm | - | 0 W/m² | - |
| 1788502482 | 20° C | 34% | 1021 hPa | 0 mm | - | 0 W/m² | - |
* Rain latest hour (hover to see other rain measurements)
** Current wind speed in m/s (hover to see current wind gust speed)